Time;durP1;ratioP1;P1;durP2;ratioP2;P2;SDS_P1;SDS_P2;PMS_P1;PMS_P2;Temp;Humidity;BMP_temperature;BMP_pressure;BME280_temperature;BME280_humidity;BME280_pressure;Samples;Min_cycle;Max_cycle;Signal;HPM_P1;HPM_P2
2023/04/01 05:08:19;;;;;;;;;;;;;;;;;;5007462;28;19962;-46
2023/04/01 05:10:45;;;;;;;;;;;;;;;;;;5044220;28;19909;-47
2023/04/01 05:13:11;;;;;;;;;;;;;;;;;;5048967;28;19915;-46
2023/04/01 05:15:37;;;;;;;;;;;;;;;;;;5049077;28;19967;-43
2023/04/01 05:18:03;;;;;;;;;;;;;;;;;;5045498;28;19909;-44
2023/04/01 05:20:29;;;;;;;;;;;;;;;;;;5029791;28;19904;-43
2023/04/01 05:22:55;;;;;;;;;;;;;;;;;;5029361;28;19917;-45
2023/04/01 05:25:21;;;;;;;;;;;;;;;;;;5029581;28;19909;-45
2023/04/01 05:27:47;;;;;;;;;;;;;;;;;;5029396;28;19910;-45
2023/04/01 05:30:13;;;;;;;;;;;;;;;;;;5029187;28;19962;-43
2023/04/01 05:32:39;;;;;;;;;;;;;;;;;;5028962;28;19972;-45
2023/04/01 05:35:05;;;;;;;;;;;;;;;;;;5029581;28;19909;-44
2023/04/01 05:37:31;;;;;;;;;;;;;;;;;;5029394;28;19916;-44
2023/04/01 05:39:58;;;;;;;;;;;;;;;;;;5029478;28;19912;-45
2023/04/01 05:42:24;;;;;;;;;;;;;;;;;;5029031;28;19980;-47
2023/04/01 05:44:50;;;;;;;;;;;;;;;;;;5029088;28;19970;-46
2023/04/01 05:47:16;;;;;;;;;;;;;;;;;;5028811;28;20408;-44
2023/04/01 05:49:42;;;;;;;;;;;;;;;;;;5029237;28;19943;-44
2023/04/01 05:52:08;;;;;;;;;;;;;;;;;;5027846;28;19931;-48
2023/04/01 05:54:34;;;;;;;;;;;;;;;;;;5026959;28;19957;-45
2023/04/01 05:57:01;;;;;;;;;;;;;;;;;;5014078;28;19909;-47
2023/04/01 05:59:28;;;;;;;;;;;;;;;;;;5028025;28;19909;-47
2023/04/01 06:01:54;;;;;;;;;;;;;;;;;;5024849;28;19923;-45
2023/04/01 06:04:20;;;;;;;;;;;;;;;;;;5026637;28;20007;-48
2023/04/01 06:06:46;;;;;;;;;;;;;;;;;;5026529;28;20515;-45
2023/04/01 06:09:12;;;;;;;;;;;;;;;;;;5025079;28;20003;-46
2023/04/01 06:11:38;;;;;;;;;;;;;;;;;;5027756;28;19920;-45
2023/04/01 06:14:05;;;;;;;;;;;;;;;;;;5026443;28;19931;-45
2023/04/01 06:16:31;;;;;;;;;;;;;;;;;;5026890;28;19959;-48
2023/04/01 06:18:57;;;;;;;;;;;;;;;;;;5026147;28;20447;-45
2023/04/01 06:21:23;;;;;;;;;;;;;;;;;;5026761;28;19913;-46
2023/04/01 06:23:49;;;;;;;;;;;;;;;;;;5026095;28;19992;-48
2023/04/01 06:26:15;;;;;;;;;;;;;;;;;;5026910;28;20066;-45
2023/04/01 06:28:42;;;;;;;;;;;;;;;;;;5026945;28;20019;-47
2023/04/01 06:31:08;;;;;;;;;;;;;;;;;;5025788;28;19928;-45
2023/04/01 06:33:34;;;;;;;;;;;;;;;;;;5026188;28;20380;-47
2023/04/01 06:36:00;;;;;;;;;;;;;;;;;;5025372;28;20363;-46
2023/04/01 06:38:26;;;;;;;;;;;;;;;;;;5025896;28;19939;-48
2023/04/01 06:40:52;;;;;;;;;;;;;;;;;;5026356;28;19917;-45
2023/04/01 06:43:18;;;;;;;;;;;;;;;;;;5027773;28;19917;-45
2023/04/01 06:45:44;;;;;;;;;;;;;;;;;;5026271;28;19913;-45
2023/04/01 06:48:10;;;;;;;;;;;;;;;;;;5027787;28;19967;-46
2023/04/01 06:50:36;;;;;;;;;;;;;;;;;;5025773;28;19963;-45
2023/04/01 06:53:02;;;;;;;;;;;;;;;;;;5027481;28;19920;-45
2023/04/01 06:55:28;;;;;;;;;;;;;;;;;;5025036;28;20045;-46
2023/04/01 06:57:55;;;;;;;;;;;;;;;;;;5028496;28;19960;-46
2023/04/01 07:00:21;;;;;;;;;;;;;;;;;;5024894;28;19913;-46
2023/04/01 07:02:47;;;;;;;;;;;;;;;;;;5026563;28;19923;-45
2023/04/01 07:05:13;;;;;;;;;;;;;;;;;;5023538;28;20004;-48
2023/04/01 07:07:41;;;;;;;;;;;;;;;;;;5028338;28;19909;-49
2023/04/01 07:10:07;;;;;;;;;;;;;;;;;;5023683;28;19913;-46
2023/04/01 07:12:35;;;;;;;;;;;;;;;;;;5028062;28;19912;-45
2023/04/01 07:15:01;;;;;;;;;;;;;;;;;;5028220;28;19905;-47
2023/04/01 07:17:27;;;;;;;;;;;;;;;;;;5026977;28;19913;-45
2023/04/01 07:19:54;;;;;;;;;;;;;;;;;;5026998;28;19912;-46
2023/04/01 07:22:20;;;;;;;;;;;;;;;;;;5026828;28;20365;-48
2023/04/01 07:24:45;;;;;;;;;;;;;;;;;;5027488;28;19995;-46
2023/04/01 07:27:11;;;;;;;;;;;;;;;;;;5028224;28;19978;-45
2023/04/01 07:29:37;;;;;;;;;;;;;;;;;;5028172;28;20003;-46
2023/04/01 07:32:03;;;;;;;;;;;;;;;;;;5029933;28;19909;-47
2023/04/01 07:34:29;;;;;;;;;;;;;;;;;;5032001;28;19904;-46
2023/04/01 07:36:55;;;;;;;;;;;;;;;;;;5031934;28;19909;-47
2023/04/01 07:39:21;;;;;;;;;;;;;;;;;;5031401;28;20479;-46
2023/04/01 07:41:47;;;;;;;;;;;;;;;;;;5031863;28;19931;-46
2023/04/01 07:44:13;;;;;;;;;;;;;;;;;;5031606;28;19909;-48
2023/04/01 07:46:39;;;;;;;;;;;;;;;;;;5031555;28;19996;-46
2023/04/01 07:49:05;;;;;;;;;;;;;;;;;;5031389;28;19975;-46
2023/04/01 07:51:31;;;;;;;;;;;;;;;;;;5031890;28;19905;-45
2023/04/01 07:53:57;;;;;;;;;;;;;;;;;;5013807;28;20543;-47
2023/04/01 07:56:23;;;;;;;;;;;;;;;;;;5031217;28;19924;-45
2023/04/01 07:58:49;;;;;;;;;;;;;;;;;;5031432;28;19909;-45
2023/04/01 08:01:15;;;;;;;;;;;;;;;;;;5030945;28;19990;-48
2023/04/01 08:03:41;;;;;;;;;;;;;;;;;;5031450;28;19963;-47
2023/04/01 08:06:07;;;;;;;;;;;;;;;;;;5031283;28;19966;-46
2023/04/01 08:08:33;;;;;;;;;;;;;;;;;;5030853;28;19917;-48
2023/04/01 08:10:59;;;;;;;;;;;;;;;;;;5031296;28;19913;-46
2023/04/01 08:13:25;;;;;;;;;;;;;;;;;;5030767;28;19927;-46
2023/04/01 08:15:51;;;;;;;;;;;;;;;;;;5030644;28;20003;-49
2023/04/01 08:18:17;;;;;;;;;;;;;;;;;;5030480;28;19912;-47
2023/04/01 08:20:43;;;;;;;;;;;;;;;;;;5030600;28;19939;-48
2023/04/01 08:23:08;;;;;;;;;;;;;;;;;;5030121;28;19919;-48
2023/04/01 08:25:34;;;;;;;;;;;;;;;;;;5030382;28;20276;-46
2023/04/01 08:28:00;;;;;;;;;;;;;;;;;;5030388;28;19905;-47
2023/04/01 08:30:26;;;;;;;;;;;;;;;;;;5030509;28;19905;-46
2023/04/01 08:32:52;;;;;;;;;;;;;;;;;;5030117;28;19913;-46
2023/04/01 08:35:19;;;;;;;;;;;;;;;;;;5028537;28;19912;-49
2023/04/01 08:37:45;;;;;;;;;;;;;;;;;;5029758;28;19950;-45
2023/04/01 08:40:11;;;;;;;;;;;;;;;;;;5030592;28;19916;-46
2023/04/01 08:42:38;;;;;;;;;;;;;;;;;;5029800;28;19920;-46
2023/04/01 08:45:04;;;;;;;;;;;;;;;;;;5028733;28;19975;-46
2023/04/01 08:47:30;;;;;;;;;;;;;;;;;;5029095;28;20233;-47
2023/04/01 08:49:56;;;;;;;;;;;;;;;;;;5028855;28;20280;-45
2023/04/01 08:52:23;;;;;;;;;;;;;;;;;;5028921;28;19916;-45
2023/04/01 08:54:49;;;;;;;;;;;;;;;;;;5028912;28;19909;-46
2023/04/01 08:57:15;;;;;;;;;;;;;;;;;;5010909;28;20299;-47
2023/04/01 08:59:40;;;;;;;;;;;;;;;;;;5028502;28;19912;-46
2023/04/01 09:02:07;;;;;;;;;;;;;;;;;;5028928;28;19919;-47
2023/04/01 09:04:33;;;;;;;;;;;;;;;;;;5028928;28;19913;-46
2023/04/01 09:06:59;;;;;;;;;;;;;;;;;;5028864;28;19915;-45
2023/04/01 09:09:25;;;;;;;;;;;;;;;;;;5028255;28;19956;-46
2023/04/01 09:11:51;;;;;;;;;;;;;;;;;;5028360;28;19992;-48
2023/04/01 09:14:17;;;;;;;;;;;;;;;;;;5028247;28;20011;-49
2023/04/01 09:16:42;;;;;;;;;;;;;;;;;;5028798;28;19909;-46
2023/04/01 09:19:08;;;;;;;;;;;;;;;;;;5028128;28;19909;-47
2023/04/01 09:21:35;;;;;;;;;;;;;;;;;;5028138;28;19956;-47
2023/04/01 09:24:02;;;;;;;;;;;;;;;;;;5028458;28;19913;-49
2023/04/01 09:26:27;;;;;;;;;;;;;;;;;;5028330;28;19951;-48
2023/04/01 09:28:54;;;;;;;;;;;;;;;;;;5027822;28;19908;-46
2023/04/01 09:31:20;;;;;;;;;;;;;;;;;;5028136;28;19908;-46
2023/04/01 09:33:46;;;;;;;;;;;;;;;;;;5028286;28;20000;-47
2023/04/01 09:36:13;;;;;;;;;;;;;;;;;;5028156;28;19909;-45
2023/04/01 09:38:39;;;;;;;;;;;;;;;;;;5028108;28;19916;-46
2023/04/01 09:41:05;;;;;;;;;;;;;;;;;;5027951;28;19909;-45
2023/04/01 09:43:31;;;;;;;;;;;;;;;;;;5028189;28;19916;-45
2023/04/01 09:45:57;;;;;;;;;;;;;;;;;;5027845;28;19911;-46
2023/04/01 09:48:23;;;;;;;;;;;;;;;;;;5028113;28;19909;-45
2023/04/01 09:50:49;;;;;;;;;;;;;;;;;;5027951;28;20346;-45
2023/04/01 09:53:15;;;;;;;;;;;;;;;;;;5027945;28;19905;-45
2023/04/01 09:55:43;;;;;;;;;;;;;;;;;;5027064;28;20269;-47
2023/04/01 09:58:09;;;;;;;;;;;;;;;;;;5027393;28;19916;-46
2023/04/01 10:00:35;;;;;;;;;;;;;;;;;;5027720;28;19935;-46
2023/04/01 10:03:01;;;;;;;;;;;;;;;;;;5010074;28;20062;-48
2023/04/01 10:05:27;;;;;;;;;;;;;;;;;;5027452;28;19906;-47
2023/04/01 10:07:53;;;;;;;;;;;;;;;;;;5027236;28;19915;-46
2023/04/01 10:10:19;;;;;;;;;;;;;;;;;;5027328;28;20312;-48
2023/04/01 10:12:45;;;;;;;;;;;;;;;;;;5027485;28;20007;-49
2023/04/01 10:15:11;;;;;;;;;;;;;;;;;;5027388;28;19905;-48
2023/04/01 10:17:37;;;;;;;;;;;;;;;;;;5027423;28;19909;-48
2023/04/01 10:20:03;;;;;;;;;;;;;;;;;;5027438;28;19909;-46
2023/04/01 10:22:29;;;;;;;;;;;;;;;;;;5027591;28;19919;-47
2023/04/01 10:24:55;;;;;;;;;;;;;;;;;;5027412;28;20376;-46
2023/04/01 10:27:22;;;;;;;;;;;;;;;;;;5026999;28;20309;-48
2023/04/01 10:29:47;;;;;;;;;;;;;;;;;;5027197;28;19960;-48
2023/04/01 10:32:14;;;;;;;;;;;;;;;;;;5027440;28;19960;-47
2023/04/01 10:34:40;;;;;;;;;;;;;;;;;;5027403;28;19909;-46
2023/04/01 10:37:05;;;;;;;;;;;;;;;;;;5027391;28;19959;-46
2023/04/01 10:39:32;;;;;;;;;;;;;;;;;;5027496;28;19905;-46
2023/04/01 10:41:58;;;;;;;;;;;;;;;;;;5027419;28;20372;-48
2023/04/01 10:44:24;;;;;;;;;;;;;;;;;;5027403;28;19936;-47
2023/04/01 10:46:50;;;;;;;;;;;;;;;;;;5027887;28;19909;-45
2023/04/01 10:49:16;;;;;;;;;;;;;;;;;;5027297;28;19919;-45
2023/04/01 10:51:43;;;;;;;;;;;;;;;;;;5028466;28;19935;-47
2023/04/01 10:54:09;;;;;;;;;;;;;;;;;;5028374;28;19909;-47
2023/04/01 10:56:35;;;;;;;;;;;;;;;;;;5028220;28;19913;-47
2023/04/01 10:59:02;;;;;;;;;;;;;;;;;;5028739;28;19913;-44
2023/04/01 11:01:28;;;;;;;;;;;;;;;;;;5028478;28;19992;-46
2023/04/01 11:03:54;;;;;;;;;;;;;;;;;;5028048;28;20016;-49
2023/04/01 11:06:20;;;;;;;;;;;;;;;;;;5035902;28;19975;-45
2023/04/01 11:08:46;;;;;;;;;;;;;;;;;;5030476;28;19951;-46
2023/04/01 11:11:14;;;;;;;;;;;;;;;;;;5029827;28;19924;-49
2023/04/01 11:13:40;;;;;;;;;;;;;;;;;;5029896;28;19908;-48
2023/04/01 11:16:06;;;;;;;;;;;;;;;;;;5030069;28;20541;-47
2023/04/01 11:18:32;;;;;;;;;;;;;;;;;;5029754;28;19936;-48
2023/04/01 11:20:57;;;;;;;;;;;;;;;;;;5030430;28;19913;-46
2023/04/01 11:23:23;;;;;;;;;;;;;;;;;;5030090;28;19936;-48
2023/04/01 11:25:49;;;;;;;;;;;;;;;;;;5030028;28;19909;-49
2023/04/01 11:28:15;;;;;;;;;;;;;;;;;;5029375;28;19909;-46
2023/04/01 11:30:41;;;;;;;;;;;;;;;;;;5029537;28;19913;-48
2023/04/01 11:33:07;;;;;;;;;;;;;;;;;;5029964;28;19913;-48
2023/04/01 11:35:33;;;;;;;;;;;;;;;;;;5029137;28;19917;-48
2023/04/01 11:37:59;;;;;;;;;;;;;;;;;;5011097;28;19916;-47
2023/04/01 11:40:25;;;;;;;;;;;;;;;;;;5044441;28;19909;-47
2023/04/01 11:42:51;;;;;;;;;;;;;;;;;;5029510;28;19913;-49
2023/04/01 11:45:17;;;;;;;;;;;;;;;;;;5011299;28;19912;-49
2023/04/01 11:47:43;;;;;;;;;;;;;;;;;;5029157;28;19912;-46
2023/04/01 11:50:10;;;;;;;;;;;;;;;;;;5030179;28;19916;-49
2023/04/01 11:52:36;;;;;;;;;;;;;;;;;;5029874;28;19905;-46
2023/04/01 11:55:02;;;;;;;;;;;;;;;;;;5029598;28;19917;-50
2023/04/01 11:57:28;;;;;;;;;;;;;;;;;;5028640;28;19982;-47
2023/04/01 11:59:54;;;;;;;;;;;;;;;;;;5027829;28;20475;-50
2023/04/01 12:02:20;;;;;;;;;;;;;;;;;;5029003;28;19948;-46
2023/04/01 12:04:46;;;;;;;;;;;;;;;;;;5028698;28;19959;-46
2023/04/01 12:07:12;;;;;;;;;;;;;;;;;;5028952;28;19924;-46
2023/04/01 12:09:38;;;;;;;;;;;;;;;;;;5027172;28;19917;-46
2023/04/01 12:12:04;;;;;;;;;;;;;;;;;;5028225;28;19909;-48
2023/04/01 12:14:30;;;;;;;;;;;;;;;;;;5028505;28;19986;-47
2023/04/01 12:16:57;;;;;;;;;;;;;;;;;;5027009;28;19909;-49
2023/04/01 12:19:23;;;;;;;;;;;;;;;;;;5027429;28;19912;-46
2023/04/01 12:21:49;;;;;;;;;;;;;;;;;;5026875;28;20273;-51
2023/04/01 12:24:15;;;;;;;;;;;;;;;;;;5027859;28;19909;-48
2023/04/01 12:26:40;;;;;;;;;;;;;;;;;;5028363;28;19938;-47
2023/04/01 12:29:06;;;;;;;;;;;;;;;;;;5027483;28;20480;-49
2023/04/01 12:31:32;;;;;;;;;;;;;;;;;;5027934;28;19913;-49
2023/04/01 12:33:58;;;;;;;;;;;;;;;;;;5027999;28;20443;-48
2023/04/01 12:36:25;;;;;;;;;;;;;;;;;;5027733;28;19905;-46
2023/04/01 12:38:51;;;;;;;;;;;;;;;;;;5027718;28;19905;-48
2023/04/01 12:41:17;;;;;;;;;;;;;;;;;;5027729;28;20372;-48
2023/04/01 12:43:43;;;;;;;;;;;;;;;;;;5027073;28;20016;-48
2023/04/01 12:46:08;;;;;;;;;;;;;;;;;;5028749;28;20299;-45
2023/04/01 12:48:34;;;;;;;;;;;;;;;;;;5025828;28;19955;-46
2023/04/01 12:51:00;;;;;;;;;;;;;;;;;;5027481;28;20395;-46
2023/04/01 12:53:26;;;;;;;;;;;;;;;;;;5027507;28;19937;-45
2023/04/01 12:55:52;;;;;;;;;;;;;;;;;;5027273;28;20428;-47
2023/04/01 12:58:18;;;;;;;;;;;;;;;;;;5027347;28;20285;-48
2023/04/01 13:00:44;;;;;;;;;;;;;;;;;;5027104;28;19905;-46
2023/04/01 13:03:11;;;;;;;;;;;;;;;;;;5026295;28;20070;-47
2023/04/01 13:05:37;;;;;;;;;;;;;;;;;;5027825;28;19919;-46
2023/04/01 13:08:03;;;;;;;;;;;;;;;;;;5023696;28;20300;-46
2023/04/01 13:10:29;;;;;;;;;;;;;;;;;;5007049;28;19910;-46
2023/04/01 13:12:55;;;;;;;;;;;;;;;;;;5007434;28;19905;-46
2023/04/01 13:15:21;;;;;;;;;;;;;;;;;;5007827;28;19905;-47
2023/04/01 13:17:47;;;;;;;;;;;;;;;;;;5007005;28;19936;-49
2023/04/01 13:20:13;;;;;;;;;;;;;;;;;;5006654;28;19910;-47
2023/04/01 13:22:40;;;;;;;;;;;;;;;;;;5006641;28;19925;-45
2023/04/01 13:25:06;;;;;;;;;;;;;;;;;;5005818;28;19940;-49
2023/04/01 13:27:32;;;;;;;;;;;;;;;;;;5006640;28;20150;-48
2023/04/01 13:29:58;;;;;;;;;;;;;;;;;;5005808;28;19966;-46
2023/04/01 13:32:25;;;;;;;;;;;;;;;;;;5006938;28;19910;-47
2023/04/01 13:34:50;;;;;;;;;;;;;;;;;;5007341;28;19905;-50
2023/04/01 13:37:16;;;;;;;;;;;;;;;;;;5006370;28;19916;-48
2023/04/01 13:39:42;;;;;;;;;;;;;;;;;;5006170;28;20016;-47
2023/04/01 13:42:08;;;;;;;;;;;;;;;;;;5005692;28;20456;-46
2023/04/01 13:44:34;;;;;;;;;;;;;;;;;;5010451;28;20360;-46
2023/04/01 13:47:01;;;;;;;;;;;;;;;;;;5027181;28;19909;-48
2023/04/01 13:49:27;;;;;;;;;;;;;;;;;;5005868;28;19956;-47
2023/04/01 13:51:53;;;;;;;;;;;;;;;;;;5007203;28;19913;-46
2023/04/01 13:54:20;;;;;;;;;;;;;;;;;;5006778;28;19909;-46
2023/04/01 13:56:46;;;;;;;;;;;;;;;;;;5007659;28;19914;-46
2023/04/01 13:59:12;;;;;;;;;;;;;;;;;;5007295;28;19944;-46
2023/04/01 14:01:37;;;;;;;;;;;;;;;;;;5006659;28;19957;-47
2023/04/01 14:04:04;;;;;;;;;;;;;;;;;;5007347;28;19928;-47
2023/04/01 14:06:30;;;;;;;;;;;;;;;;;;5007430;28;19936;-46
2023/04/01 14:08:56;;;;;;;;;;;;;;;;;;5017090;28;20377;-48
2023/04/01 14:11:22;;;;;;;;;;;;;;;;;;5027961;28;19952;-45
2023/04/01 14:13:48;;;;;;;;;;;;;;;;;;5027590;28;20277;-47
2023/04/01 14:16:14;;;;;;;;;;;;;;;;;;5027162;28;19909;-47
2023/04/01 14:18:40;;;;;;;;;;;;;;;;;;5027431;28;19909;-48
2023/04/01 14:21:06;;;;;;;;;;;;;;;;;;5008889;28;19924;-47
2023/04/01 14:23:32;;;;;;;;;;;;;;;;;;5016323;28;19917;-46
2023/04/01 14:25:58;;;;;;;;;;;;;;;;;;5007502;28;19920;-49
2023/04/01 14:28:24;;;;;;;;;;;;;;;;;;5025870;28;19912;-46
2023/04/01 14:30:50;;;;;;;;;;;;;;;;;;5036394;28;19917;-47
2023/04/01 14:33:16;;;;;;;;;;;;;;;;;;5027123;28;19912;-47
2023/04/01 14:35:43;;;;;;;;;;;;;;;;;;5027179;28;19912;-46
2023/04/01 14:38:09;;;;;;;;;;;;;;;;;;5026162;28;19923;-45
2023/04/01 14:40:35;;;;;;;;;;;;;;;;;;5028197;28;19995;-50
2023/04/01 14:43:01;;;;;;;;;;;;;;;;;;5030988;28;19917;-46
2023/04/01 14:45:27;;;;;;;;;;;;;;;;;;5029810;28;19983;-46
2023/04/01 14:47:53;;;;;;;;;;;;;;;;;;5030217;28;19909;-48
2023/04/01 14:50:19;;;;;;;;;;;;;;;;;;5029568;28;19909;-47
2023/04/01 14:52:45;;;;;;;;;;;;;;;;;;5037944;28;20284;-50
2023/04/01 14:55:11;;;;;;;;;;;;;;;;;;5034670;28;20429;-46
2023/04/01 14:57:37;;;;;;;;;;;;;;;;;;5042524;28;19999;-46
2023/04/01 15:00:04;;;;;;;;;;;;;;;;;;5029156;28;19912;-46
2023/04/01 15:02:30;;;;;;;;;;;;;;;;;;5029711;28;20321;-49
2023/04/01 15:04:56;;;;;;;;;;;;;;;;;;5029116;28;19909;-45
2023/04/01 15:07:22;;;;;;;;;;;;;;;;;;5029105;28;19920;-45
2023/04/01 15:09:48;;;;;;;;;;;;;;;;;;5028818;28;19917;-45
2023/04/01 15:12:15;;;;;;;;;;;;;;;;;;5010871;28;19951;-45
2023/04/01 15:14:41;;;;;;;;;;;;;;;;;;5029858;28;19909;-46
2023/04/01 15:17:09;;;;;;;;;;;;;;;;;;5029691;28;19909;-46
2023/04/01 15:19:36;;;;;;;;;;;;;;;;;;5029573;28;19905;-45
2023/04/01 15:22:02;;;;;;;;;;;;;;;;;;5029076;28;19916;-44
2023/04/01 15:24:28;;;;;;;;;;;;;;;;;;5028929;28;19908;-45
2023/04/01 15:26:55;;;;;;;;;;;;;;;;;;5029041;28;19909;-44
2023/04/01 15:29:21;;;;;;;;;;;;;;;;;;5028768;28;20361;-45
2023/04/01 15:31:46;;;;;;;;;;;;;;;;;;5028642;28;20243;-45
2023/04/01 15:34:13;;;;;;;;;;;;;;;;;;5028935;28;19915;-45
2023/04/01 15:36:39;;;;;;;;;;;;;;;;;;5028825;28;20024;-44
2023/04/01 15:39:05;;;;;;;;;;;;;;;;;;5029473;28;20636;-45
2023/04/01 15:41:31;;;;;;;;;;;;;;;;;;5028237;28;19904;-44
2023/04/01 15:43:57;;;;;;;;;;;;;;;;;;5027888;28;19913;-45
2023/04/01 15:46:23;;;;;;;;;;;;;;;;;;5028098;28;19917;-45
2023/04/01 15:48:49;;;;;;;;;;;;;;;;;;5029485;28;19919;-43
2023/04/01 15:51:17;;;;;;;;;;;;;;;;;;5028998;28;19909;-44
2023/04/01 15:53:43;;;;;;;;;;;;;;;;;;5028346;28;20097;-45
2023/04/01 15:56:09;;;;;;;;;;;;;;;;;;5029623;28;19915;-47
2023/04/01 15:58:35;;;;;;;;;;;;;;;;;;5030261;28;19951;-44
2023/04/01 16:01:01;;;;;;;;;;;;;;;;;;5029571;28;20385;-44
2023/04/01 16:03:27;;;;;;;;;;;;;;;;;;5029925;28;19912;-44
2023/04/01 16:05:52;;;;;;;;;;;;;;;;;;5029743;28;19927;-46
2023/04/01 16:08:18;;;;;;;;;;;;;;;;;;5028229;28;19956;-45
2023/04/01 16:10:45;;;;;;;;;;;;;;;;;;5028819;28;19913;-45
2023/04/01 16:13:11;;;;;;;;;;;;;;;;;;5029801;28;19937;-47
2023/04/01 16:15:37;;;;;;;;;;;;;;;;;;5018292;28;19999;-47
2023/04/01 16:18:03;;;;;;;;;;;;;;;;;;5024812;28;19931;-44
2023/04/01 16:20:29;;;;;;;;;;;;;;;;;;5028476;28;19913;-45
2023/04/01 16:22:55;;;;;;;;;;;;;;;;;;5028466;28;20367;-45
2023/04/01 16:25:21;;;;;;;;;;;;;;;;;;5028824;28;19966;-46
2023/04/01 16:27:47;;;;;;;;;;;;;;;;;;5028828;28;19909;-46
2023/04/01 16:30:13;;;;;;;;;;;;;;;;;;5029222;28;19912;-47
2023/04/01 16:32:40;;;;;;;;;;;;;;;;;;5028525;28;19971;-44
2023/04/01 16:35:06;;;;;;;;;;;;;;;;;;5029107;28;19999;-43
2023/04/01 16:37:32;;;;;;;;;;;;;;;;;;5029269;28;20051;-45
2023/04/01 16:40:00;;;;;;;;;;;;;;;;;;5028570;28;20429;-44
2023/04/01 16:42:26;;;;;;;;;;;;;;;;;;5029117;28;19909;-45
2023/04/01 16:44:52;;;;;;;;;;;;;;;;;;5028075;28;19919;-43
2023/04/01 16:47:17;;;;;;;;;;;;;;;;;;5029126;28;19940;-44
2023/04/01 16:49:43;;;;;;;;;;;;;;;;;;5028285;28;19928;-45
2023/04/01 16:52:10;;;;;;;;;;;;;;;;;;5027579;28;20007;-44
2023/04/01 16:54:36;;;;;;;;;;;;;;;;;;5023574;28;19909;-44
2023/04/01 16:57:02;;;;;;;;;;;;;;;;;;5015073;28;19924;-44
2023/04/01 16:59:28;;;;;;;;;;;;;;;;;;5013668;28;20424;-45
2023/04/01 17:01:54;;;;;;;;;;;;;;;;;;5015610;28;19915;-44
2023/04/01 17:04:20;;;;;;;;;;;;;;;;;;5026895;28;19921;-44
2023/04/01 17:06:46;;;;;;;;;;;;;;;;;;5020143;28;19909;-44
2023/04/01 17:09:12;;;;;;;;;;;;;;;;;;5022986;28;19992;-47
2023/04/01 17:11:38;;;;;;;;;;;;;;;;;;5007665;28;20000;-44
2023/04/01 17:14:04;;;;;;;;;;;;;;;;;;5024705;28;19913;-45
2023/04/01 17:16:30;;;;;;;;;;;;;;;;;;5006681;28;19983;-44
2023/04/01 17:18:56;;;;;;;;;;;;;;;;;;5008991;28;19909;-47
2023/04/01 17:21:22;;;;;;;;;;;;;;;;;;5005364;28;19940;-46
2023/04/01 17:23:48;;;;;;;;;;;;;;;;;;5009269;28;19959;-48
2023/04/01 17:26:15;;;;;;;;;;;;;;;;;;5006755;28;19906;-45
2023/04/01 17:28:41;;;;;;;;;;;;;;;;;;5014090;28;19913;-45
2023/04/01 17:31:07;;;;;;;;;;;;;;;;;;5006720;28;19924;-45
2023/04/01 17:33:33;;;;;;;;;;;;;;;;;;5007840;28;19949;-46
2023/04/01 17:35:59;;;;;;;;;;;;;;;;;;5004867;28;20317;-48
2023/04/01 17:38:26;;;;;;;;;;;;;;;;;;5009421;28;19920;-47
2023/04/01 17:40:53;;;;;;;;;;;;;;;;;;5020060;28;19909;-45
2023/04/01 17:43:20;;;;;;;;;;;;;;;;;;5005244;28;19909;-46
2023/04/01 17:45:46;;;;;;;;;;;;;;;;;;5005082;28;20393;-48
2023/04/01 17:48:12;;;;;;;;;;;;;;;;;;5005223;28;19941;-45
2023/04/01 17:50:38;;;;;;;;;;;;;;;;;;5005507;28;19917;-46
2023/04/01 17:53:04;;;;;;;;;;;;;;;;;;4986336;28;19976;-48
2023/04/01 17:55:30;;;;;;;;;;;;;;;;;;5004130;28;19921;-46
2023/04/01 17:57:56;;;;;;;;;;;;;;;;;;5005073;28;19909;-45
2023/04/01 18:00:22;;;;;;;;;;;;;;;;;;5006279;28;19940;-47
2023/04/01 18:02:49;;;;;;;;;;;;;;;;;;5005735;28;19913;-46
2023/04/01 18:05:15;;;;;;;;;;;;;;;;;;5006389;28;19913;-48
2023/04/01 18:07:43;;;;;;;;;;;;;;;;;;5006197;28;19919;-46
2023/04/01 18:10:09;;;;;;;;;;;;;;;;;;5024835;28;19971;-46
2023/04/01 18:12:35;;;;;;;;;;;;;;;;;;5026268;28;20041;-45
2023/04/01 18:15:02;;;;;;;;;;;;;;;;;;5024346;28;19920;-45
2023/04/01 18:17:28;;;;;;;;;;;;;;;;;;5024480;28;19909;-46
2023/04/01 18:19:54;;;;;;;;;;;;;;;;;;5022569;28;20138;-47
2023/04/01 18:22:20;;;;;;;;;;;;;;;;;;5004954;28;19918;-45
2023/04/01 18:24:46;;;;;;;;;;;;;;;;;;5023035;28;19916;-47
2023/04/01 18:27:11;;;;;;;;;;;;;;;;;;5024381;28;20381;-46
2023/04/01 18:29:37;;;;;;;;;;;;;;;;;;5024150;28;19924;-45
2023/04/01 18:32:04;;;;;;;;;;;;;;;;;;5023476;28;20304;-46
2023/04/01 18:34:31;;;;;;;;;;;;;;;;;;5023212;28;19913;-46
2023/04/01 18:36:57;;;;;;;;;;;;;;;;;;5023849;28;20391;-46
2023/04/01 18:39:28;;;;;;;;;;;;;;;;;;5023375;28;19982;-47
2023/04/01 18:41:54;;;;;;;;;;;;;;;;;;5024182;28;20124;-49
2023/04/01 18:44:20;;;;;;;;;;;;;;;;;;5024612;28;20111;-48
2023/04/01 18:46:46;;;;;;;;;;;;;;;;;;5024209;28;19912;-47
2023/04/01 18:49:12;;;;;;;;;;;;;;;;;;5023827;28;19913;-46
2023/04/01 18:51:38;;;;;;;;;;;;;;;;;;5024620;28;19944;-47
2023/04/01 18:54:04;;;;;;;;;;;;;;;;;;5023300;28;19909;-47
2023/04/01 18:56:30;;;;;;;;;;;;;;;;;;5024433;28;19905;-46
2023/04/01 18:58:57;;;;;;;;;;;;;;;;;;5024598;28;20062;-47
2023/04/01 19:01:25;;;;;;;;;;;;;;;;;;5006342;28;19909;-47
2023/04/01 19:03:50;;;;;;;;;;;;;;;;;;5023641;28;19917;-47
2023/04/01 19:06:16;;;;;;;;;;;;;;;;;;5039647;28;19911;-46
2023/04/01 19:08:42;;;;;;;;;;;;;;;;;;5024051;28;19917;-49
2023/04/01 19:11:08;;;;;;;;;;;;;;;;;;5025245;28;20411;-49
2023/04/01 19:13:34;;;;;;;;;;;;;;;;;;5024353;28;19908;-47
2023/04/01 19:16:01;;;;;;;;;;;;;;;;;;5023967;28;20379;-47
2023/04/01 19:18:27;;;;;;;;;;;;;;;;;;5023750;28;19956;-48
2023/04/01 19:20:57;;;;;;;;;;;;;;;;;;5023610;28;19909;-48
2023/04/01 19:23:24;;;;;;;;;;;;;;;;;;5023352;28;19975;-46
2023/04/01 19:25:50;;;;;;;;;;;;;;;;;;5023258;28;20355;-45
2023/04/01 19:28:16;;;;;;;;;;;;;;;;;;5026032;28;19912;-46
2023/04/01 19:30:42;;;;;;;;;;;;;;;;;;5027733;28;19909;-45
2023/04/01 19:33:07;;;;;;;;;;;;;;;;;;5027871;28;20389;-45
2023/04/01 19:35:33;;;;;;;;;;;;;;;;;;5027290;28;20436;-46
2023/04/01 19:37:59;;;;;;;;;;;;;;;;;;5027214;28;19959;-46
2023/04/01 19:40:26;;;;;;;;;;;;;;;;;;5027384;28;19959;-46
2023/04/01 19:42:53;;;;;;;;;;;;;;;;;;5041913;28;19923;-46
2023/04/01 19:45:18;;;;;;;;;;;;;;;;;;5024380;28;19916;-47
2023/04/01 19:47:45;;;;;;;;;;;;;;;;;;5008938;28;19909;-46
2023/04/01 19:50:11;;;;;;;;;;;;;;;;;;5026785;28;20580;-45
2023/04/01 19:52:37;;;;;;;;;;;;;;;;;;5026625;28;19948;-45
2023/04/01 19:55:02;;;;;;;;;;;;;;;;;;5026299;28;20035;-46
2023/04/01 19:57:28;;;;;;;;;;;;;;;;;;5026914;28;20455;-47
2023/04/01 19:59:54;;;;;;;;;;;;;;;;;;5026033;28;19909;-45
2023/04/01 20:02:21;;;;;;;;;;;;;;;;;;5026854;28;20420;-46
2023/04/01 20:04:47;;;;;;;;;;;;;;;;;;5026487;28;20338;-47
2023/04/01 20:07:13;;;;;;;;;;;;;;;;;;5025448;28;19909;-46
2023/04/01 20:09:39;;;;;;;;;;;;;;;;;;5026785;28;19913;-45
2023/04/01 20:12:05;;;;;;;;;;;;;;;;;;5025928;28;19935;-47
2023/04/01 20:14:31;;;;;;;;;;;;;;;;;;5027330;28;19924;-47
2023/04/01 20:16:57;;;;;;;;;;;;;;;;;;5024603;28;19924;-47
2023/04/01 20:19:23;;;;;;;;;;;;;;;;;;5018664;28;19956;-46
2023/04/01 20:21:49;;;;;;;;;;;;;;;;;;5034315;28;19958;-47
2023/04/01 20:24:15;;;;;;;;;;;;;;;;;;5026788;28;19913;-45
2023/04/01 20:26:41;;;;;;;;;;;;;;;;;;5027227;28;19915;-46
2023/04/01 20:29:07;;;;;;;;;;;;;;;;;;5026981;28;19913;-46
2023/04/01 20:31:33;;;;;;;;;;;;;;;;;;5008460;28;19913;-50
2023/04/01 20:34:00;;;;;;;;;;;;;;;;;;5006714;28;19995;-48
2023/04/01 20:36:26;;;;;;;;;;;;;;;;;;4999241;28;19910;-46
2023/04/01 20:38:53;;;;;;;;;;;;;;;;;;4988494;28;19909;-46
2023/04/01 20:41:19;;;;;;;;;;;;;;;;;;4989170;28;19905;-47
2023/04/01 20:43:45;;;;;;;;;;;;;;;;;;5021563;28;19917;-46
2023/04/01 20:46:11;;;;;;;;;;;;;;;;;;5008921;28;20561;-46
2023/04/01 20:48:37;;;;;;;;;;;;;;;;;;5026787;28;19901;-46
2023/04/01 20:51:04;;;;;;;;;;;;;;;;;;5025830;28;20028;-45
2023/04/01 20:53:32;;;;;;;;;;;;;;;;;;5025408;28;19955;-44
2023/04/01 20:55:58;;;;;;;;;;;;;;;;;;5026177;28;19913;-44
2023/04/01 20:58:25;;;;;;;;;;;;;;;;;;5026097;28;20321;-44
2023/04/01 21:00:50;;;;;;;;;;;;;;;;;;5025904;28;19944;-44
2023/04/01 21:03:16;;;;;;;;;;;;;;;;;;5025636;28;19955;-45
2023/04/01 21:05:42;;;;;;;;;;;;;;;;;;5026119;28;19909;-47
2023/04/01 21:08:08;;;;;;;;;;;;;;;;;;5026469;28;20345;-45
2023/04/01 21:10:34;;;;;;;;;;;;;;;;;;5026004;28;19905;-44
2023/04/01 21:13:01;;;;;;;;;;;;;;;;;;5024859;28;20004;-49
2023/04/01 21:15:28;;;;;;;;;;;;;;;;;;5025649;28;19956;-44
2023/04/01 21:17:54;;;;;;;;;;;;;;;;;;5025147;28;19927;-44
2023/04/01 21:20:20;;;;;;;;;;;;;;;;;;5025422;28;20440;-46
2023/04/01 21:22:46;;;;;;;;;;;;;;;;;;5024824;28;19909;-44
2023/04/01 21:25:12;;;;;;;;;;;;;;;;;;5007992;28;20351;-45
2023/04/01 21:27:37;;;;;;;;;;;;;;;;;;5026327;28;19908;-47
2023/04/01 21:30:03;;;;;;;;;;;;;;;;;;5025521;28;19909;-46
2023/04/01 21:32:30;;;;;;;;;;;;;;;;;;5007832;28;20292;-43
2023/04/01 21:34:57;;;;;;;;;;;;;;;;;;5025223;28;20323;-48
2023/04/01 21:37:24;;;;;;;;;;;;;;;;;;5025241;28;20434;-45
2023/04/01 21:39:51;;;;;;;;;;;;;;;;;;5025318;28;19905;-47
2023/04/01 21:42:18;;;;;;;;;;;;;;;;;;5025801;28;19945;-46
2023/04/01 21:44:44;;;;;;;;;;;;;;;;;;5025510;28;19928;-45